Time;durP1;ratioP1;P1;durP2;ratioP2;P2;SDS_P1;SDS_P2;PMS_P1;PMS_P2;Temp;Humidity;BMP_temperature;BMP_pressure;BME280_temperature;BME280_humidity;BME280_pressure;Samples;Min_cycle;Max_cycle;Signal;HPM_P1;HPM_P2
2023/05/01 00:01:55;;;;;;;2.30;1.80;;;;;;;8.35;46.19;101772.63;5016890;27;100723;-79
2023/05/01 00:04:21;;;;;;;2.80;1.40;;;;;;;8.29;46.07;101772.47;5015836;27;97309;-79
2023/05/01 00:06:46;;;;;;;2.30;2.03;;;;;;;8.24;46.40;101775.75;5016671;27;96838;-79
2023/05/01 00:09:11;;;;;;;3.63;1.63;;;;;;;8.24;46.46;101769.50;5016227;27;98966;-79
2023/05/01 00:11:37;;;;;;;2.50;1.70;;;;;;;8.18;46.13;101763.06;5014908;27;108849;-79
2023/05/01 00:14:02;;;;;;;1.97;1.70;;;;;;;8.14;46.25;101776.16;5014727;27;97997;-79
2023/05/01 00:16:28;;;;;;;3.37;1.53;;;;;;;8.11;46.45;101757.84;5017107;27;97304;-80
2023/05/01 00:18:54;;;;;;;2.17;1.73;;;;;;;8.06;46.55;101753.72;5018545;27;99458;-79
2023/05/01 00:21:19;;;;;;;2.53;2.00;;;;;;;8.00;46.58;101741.03;5017479;27;100542;-79
2023/05/01 00:23:44;;;;;;;4.07;1.67;;;;;;;7.98;46.53;101740.72;5015286;27;96707;-79
2023/05/01 00:26:10;;;;;;;2.00;1.90;;;;;;;7.95;46.76;101758.06;5014348;28;97334;-78
2023/05/01 00:28:35;;;;;;;1.80;1.53;;;;;;;7.94;46.82;101740.09;5016722;27;97386;-79
2023/05/01 00:31:01;;;;;;;3.00;1.70;;;;;;;7.95;46.89;101736.91;5022885;27;98446;-79
2023/05/01 00:33:26;;;;;;;1.57;1.47;;;;;;;7.91;46.83;101719.81;5017752;27;96741;-79
2023/05/01 00:35:51;;;;;;;2.40;1.50;;;;;;;7.92;46.90;101726.06;5014315;27;97305;-79
2023/05/01 00:38:17;;;;;;;2.90;1.73;;;;;;;7.90;46.80;101728.50;5012987;27;97772;-79
2023/05/01 00:40:43;;;;;;;2.37;1.67;;;;;;;7.86;46.97;101725.13;5015166;27;97328;-78
2023/05/01 00:43:13;;;;;;;3.17;2.10;;;;;;;7.80;47.24;101724.19;5015074;27;98806;-79
2023/05/01 00:45:42;;;;;;;3.20;2.00;;;;;;;7.80;47.60;101719.44;5017024;27;96777;-79
2023/05/01 00:48:08;;;;;;;2.33;2.13;;;;;;;7.81;47.29;101712.00;5022382;27;99528;-79
2023/05/01 00:50:34;;;;;;;4.00;1.40;;;;;;;7.83;47.28;101709.59;5014067;28;97276;-79
2023/05/01 00:52:59;;;;;;;2.00;1.90;;;;;;;7.82;47.27;101717.03;5013161;27;97367;-79
2023/05/01 00:55:25;;;;;;;2.37;1.87;;;;;;;7.82;47.66;101703.31;5017512;27;97490;-79
2023/05/01 00:57:53;;;;;;;1.97;1.87;;;;;;;7.82;47.38;101714.28;5015528;27;97238;-79
2023/05/01 01:00:21;;;;;;;1.43;1.33;;;;;;;7.82;47.32;101713.53;5014225;27;99111;-79
2023/05/01 01:02:46;;;;;;;2.87;1.57;;;;;;;7.83;47.31;101706.84;5015117;27;97030;-79
2023/05/01 01:05:12;;;;;;;2.53;2.10;;;;;;;7.84;47.64;101697.41;5018491;27;96794;-78
2023/05/01 01:07:53;;;;;;;1.93;1.80;;;;;;;7.85;48.35;101701.69;5019322;27;100830;-79
2023/05/01 01:10:45;;;;;;;2.30;2.10;;;;;;;7.81;48.55;101690.84;5016013;27;97746;-79
2023/05/01 01:13:24;;;;;;;1.93;1.70;;;;;;;7.77;48.23;101690.22;4986159;27;96952;-79
2023/05/01 01:15:55;;;;;;;1.70;1.53;;;;;;;7.79;47.46;101687.81;5014392;27;97081;-79
2023/05/01 01:18:39;;;;;;;3.53;2.17;;;;;;;7.76;48.59;101693.41;5016007;27;97473;-79
2023/05/01 01:21:14;;;;;;;4.00;1.93;;;;;;;7.76;47.75;101680.47;5017003;27;99415;-79
2023/05/01 01:24:11;;;;;;;2.03;1.77;;;;;;;7.72;48.98;101685.31;5018828;27;97110;-79
2023/05/01 01:27:01;;;;;;;3.03;1.90;;;;;;;7.71;48.93;101683.03;5015832;27;96710;-79
2023/05/01 01:30:08;;;;;;;1.77;1.67;;;;;;;7.70;48.86;101676.03;5020213;27;98073;-79
2023/05/01 01:32:51;;;;;;;2.23;1.83;;;;;;;7.70;48.80;101679.53;5015110;27;97816;-79
2023/05/01 01:35:24;;;;;;;4.27;2.03;;;;;;;7.70;48.34;101676.78;5019114;27;97123;-79
2023/05/01 01:38:04;;;;;;;2.53;1.80;;;;;;;7.73;48.72;101681.38;5020418;27;96902;-78
2023/05/01 01:40:38;;;;;;;2.70;2.33;;;;;;;7.75;48.42;101678.19;5016074;27;100145;-79
2023/05/01 01:43:09;;;;;;;4.90;2.00;;;;;;;7.75;48.19;101673.47;5024966;27;100395;-79
2023/05/01 01:45:45;;;;;;;2.10;1.97;;;;;;;7.79;48.58;101681.56;5019011;27;97197;-79
2023/05/01 01:48:16;;;;;;;1.60;1.50;;;;;;;7.79;48.30;101678.81;5025233;27;97654;-79
2023/05/01 01:50:44;;;;;;;2.00;1.90;;;;;;;7.80;48.27;101674.88;5024834;27;101005;-79
2023/05/01 01:53:14;;;;;;;2.30;1.80;;;;;;;7.79;48.00;101671.38;5015984;27;99671;-79
2023/05/01 01:55:42;;;;;;;3.57;1.93;;;;;;;7.79;48.17;101662.38;5016767;27;97382;-79
2023/05/01 01:58:09;;;;;;;4.03;1.90;;;;;;;7.79;48.32;101656.91;5017705;27;96779;-79
2023/05/01 02:00:35;;;;;;;2.63;2.13;;;;;;;7.76;48.30;101663.25;5020268;27;100167;-79
2023/05/01 02:03:02;;;;;;;2.60;1.97;;;;;;;7.73;48.31;101654.00;5021195;27;97040;-79
2023/05/01 02:05:28;;;;;;;3.80;1.77;;;;;;;7.70;48.52;101657.63;5020929;27;97196;-79
2023/05/01 02:07:56;;;;;;;3.70;1.90;;;;;;;7.66;48.60;101654.25;5017669;27;97031;-79
2023/05/01 02:10:22;;;;;;;2.23;2.03;;;;;;;7.63;48.57;101648.88;5018881;27;97149;-79
2023/05/01 02:12:50;;;;;;;4.60;2.07;;;;;;;7.62;48.76;101642.66;5017644;27;97908;-79
2023/05/01 02:15:20;;;;;;;4.73;1.87;;;;;;;7.60;48.66;101650.53;5015461;27;96811;-79
2023/05/01 02:17:48;;;;;;;3.10;1.77;;;;;;;7.60;48.58;101655.28;5024734;27;97269;-79
2023/05/01 02:20:14;;;;;;;7.00;1.80;;;;;;;7.61;48.52;101634.88;5017877;27;97755;-79
2023/05/01 02:22:41;;;;;;;1.80;1.70;;;;;;;7.60;48.41;101627.88;5018986;27;99780;-79
2023/05/01 02:25:10;;;;;;;3.90;2.30;;;;;;;7.55;48.66;101638.22;5017969;27;97492;-79
2023/05/01 02:27:42;;;;;;;3.40;1.63;;;;;;;7.49;48.89;101626.28;5019359;27;97258;-80
2023/05/01 02:30:08;;;;;;;2.40;2.20;;;;;;;7.48;48.77;101611.09;5018109;27;98089;-79
2023/05/01 02:32:33;;;;;;;3.53;1.80;;;;;;;7.44;48.73;101618.69;5023698;27;100307;-79
2023/05/01 02:35:00;;;;;;;7.07;2.10;;;;;;;7.44;48.85;101618.69;5017607;27;97077;-79
2023/05/01 02:37:26;;;;;;;2.30;2.10;;;;;;;7.44;48.89;101615.94;5024287;27;97417;-80
2023/05/01 02:39:52;;;;;;;1.97;1.80;;;;;;;7.42;49.16;101612.13;5016258;27;99538;-79
2023/05/01 02:42:22;;;;;;;3.57;1.77;;;;;;;7.40;48.92;101598.09;5014940;27;97786;-80
2023/05/01 02:44:54;;;;;;;2.23;1.80;;;;;;;7.40;49.20;101601.59;5016234;27;97124;-80
2023/05/01 02:47:22;;;;;;;2.77;2.20;;;;;;;7.31;49.17;101593.34;5016416;27;97774;-79
2023/05/01 02:49:48;;;;;;;3.53;1.80;;;;;;;7.30;49.30;101594.53;5024519;27;99566;-79
2023/05/01 02:52:16;;;;;;;1.43;1.33;;;;;;;7.31;49.42;101592.56;5015470;27;97255;-79
2023/05/01 02:54:44;;;;;;;4.20;2.13;;;;;;;7.30;49.49;101604.72;5019572;27;97087;-79
2023/05/01 02:57:10;;;;;;;4.40;1.90;;;;;;;7.26;49.31;101582.97;5017884;27;96947;-79
2023/05/01 02:59:36;;;;;;;4.03;2.00;;;;;;;7.26;49.42;101585.69;5024753;27;100524;-79
2023/05/01 03:02:01;;;;;;;2.07;1.90;;;;;;;7.27;49.37;101584.47;5025496;27;101033;-79
2023/05/01 03:04:27;;;;;;;2.30;2.10;;;;;;;7.24;49.43;101582.66;5019031;27;96776;-79
2023/05/01 03:06:53;;;;;;;2.90;1.93;;;;;;;7.22;49.42;101568.66;5018015;27;97020;-78
2023/05/01 03:09:19;;;;;;;6.73;2.07;;;;;;;7.20;49.39;101583.97;5017479;27;97239;-78
2023/05/01 03:11:44;;;;;;;2.10;1.83;;;;;;;7.19;49.59;101577.75;5013716;27;100626;-79
2023/05/01 03:14:10;;;;;;;2.00;1.90;;;;;;;7.11;49.38;101568.28;5016248;27;96962;-79
2023/05/01 03:16:35;;;;;;;1.93;1.47;;;;;;;7.14;49.27;101567.34;5017695;27;97186;-79
2023/05/01 03:19:01;;;;;;;2.43;2.17;;;;;;;7.14;49.49;101570.09;5034514;27;99368;-79
2023/05/01 03:21:26;;;;;;;2.97;2.00;;;;;;;7.06;49.83;101573.53;5016760;27;97811;-79
2023/05/01 03:23:51;;;;;;;4.00;2.03;;;;;;;7.02;49.79;101562.72;5019762;27;98413;-79
2023/05/01 03:26:17;;;;;;;4.33;1.80;;;;;;;7.00;49.67;101565.16;5021084;27;97614;-79
2023/05/01 03:28:42;;;;;;;2.87;2.40;;;;;;;6.94;49.64;101556.00;5018906;27;98255;-79
2023/05/01 03:31:07;;;;;;;2.23;2.03;;;;;;;6.92;49.70;101566.63;5017259;27;97013;-79
2023/05/01 03:33:33;;;;;;;5.30;2.30;;;;;;;6.90;50.06;101549.88;5018263;27;97138;-79
2023/05/01 03:36:03;;;;;;;2.30;2.10;;;;;;;6.84;50.22;101557.09;5020452;27;97233;-79
2023/05/01 03:38:31;;;;;;;2.90;1.97;;;;;;;6.85;50.21;101544.97;5016519;27;97846;-79
2023/05/01 03:40:57;;;;;;;2.10;1.83;;;;;;;6.79;49.92;101552.22;5015638;27;99141;-79
2023/05/01 03:43:24;;;;;;;3.40;2.50;;;;;;;6.76;50.04;101550.38;5015626;27;96749;-78
2023/05/01 03:45:50;;;;;;;1.93;1.73;;;;;;;6.71;50.34;101546.22;5020560;27;96979;-79
2023/05/01 03:48:16;;;;;;;7.57;1.90;;;;;;;6.69;50.18;101545.91;5022850;27;99583;-78
2023/05/01 03:50:41;;;;;;;2.90;2.00;;;;;;;6.73;50.32;101529.38;5017567;27;97009;-79
2023/05/01 03:53:06;;;;;;;3.27;2.10;;;;;;;6.74;50.15;101542.63;5016036;27;97516;-78
2023/05/01 03:55:32;;;;;;;3.27;1.70;;;;;;;6.75;50.31;101529.69;5016421;27;97691;-79
2023/05/01 03:57:58;;;;;;;2.17;2.03;;;;;;;6.77;50.28;101538.97;5022345;27;101156;-79
2023/05/01 04:00:23;;;;;;;1.80;1.70;;;;;;;6.77;50.29;101541.72;5021222;27;100444;-78
2023/05/01 04:02:48;;;;;;;3.97;1.90;;;;;;;6.78;50.45;101529.59;5032264;27;97154;-79
2023/05/01 04:05:14;;;;;;;2.53;1.87;;;;;;;6.82;50.25;101529.44;5031265;27;97105;-79
2023/05/01 04:07:39;;;;;;;3.83;2.17;;;;;;;6.84;50.13;101535.22;5031660;27;96878;-79
2023/05/01 04:10:07;;;;;;;4.00;1.87;;;;;;;6.81;50.19;101539.63;5019674;27;98890;-78
2023/05/01 04:12:32;;;;;;;2.60;2.30;;;;;;;6.78;50.30;101517.88;5024732;27;99975;-78
2023/05/01 04:14:57;;;;;;;1.97;1.73;;;;;;;6.78;50.03;101515.91;5017715;27;97510;-78
2023/05/01 04:17:24;;;;;;;1.57;1.47;;;;;;;6.78;50.33;101515.13;5011965;27;99035;-78
2023/05/01 04:19:49;;;;;;;4.70;2.17;;;;;;;6.81;50.32;101515.00;5023833;27;99087;-79
2023/05/01 04:22:15;;;;;;;2.17;1.97;;;;;;;6.86;50.48;101510.94;5021543;27;97491;-78
2023/05/01 04:24:40;;;;;;;4.27;1.87;;;;;;;6.91;50.55;101528.75;5015007;27;97135;-78
2023/05/01 04:27:05;;;;;;;2.00;1.90;;;;;;;6.93;50.41;101498.97;5016584;27;100077;-79
2023/05/01 04:29:31;;;;;;;1.90;1.67;;;;;;;6.95;50.40;101521.94;5017088;27;96762;-79
2023/05/01 04:31:56;;;;;;;2.20;2.00;;;;;;;7.01;50.53;101498.25;5023843;27;97047;-79
2023/05/01 04:34:21;;;;;;;3.53;1.90;;;;;;;7.04;50.54;101505.59;5014511;27;98371;-79
2023/05/01 04:36:47;;;;;;;2.57;1.70;;;;;;;7.10;50.51;101503.78;5017732;27;97009;-79
2023/05/01 04:39:13;;;;;;;1.70;1.53;;;;;;;7.16;50.77;101495.78;5019209;27;99189;-79
2023/05/01 04:41:38;;;;;;;3.47;2.13;;;;;;;7.20;50.57;101496.41;5015191;27;98149;-78
2023/05/01 04:44:04;;;;;;;3.30;2.20;;;;;;;7.24;50.90;101497.81;5015957;27;98026;-79
2023/05/01 04:46:29;;;;;;;2.00;1.87;;;;;;;7.30;50.47;101495.25;5012073;27;98043;-78
2023/05/01 04:48:54;;;;;;;2.73;1.77;;;;;;;7.35;50.71;101489.97;5023327;27;100748;-79
2023/05/01 04:51:20;;;;;;;2.40;1.80;;;;;;;7.40;50.55;101485.88;5020636;27;97477;-78
2023/05/01 04:53:45;;;;;;;3.23;2.30;;;;;;;7.46;50.54;101492.28;5017136;27;97256;-78
2023/05/01 04:56:11;;;;;;;4.30;2.10;;;;;;;7.49;50.61;101486.66;5019705;27;98038;-79
2023/05/01 04:58:36;;;;;;;1.83;1.50;;;;;;;7.51;50.54;101484.22;5023972;27;100022;-79
2023/05/01 05:01:01;;;;;;;5.00;2.20;;;;;;;7.54;50.62;101497.03;5016655;27;97656;-79
2023/05/01 05:03:27;;;;;;;3.13;1.73;;;;;;;7.60;50.77;101488.97;5015415;27;97643;-78
2023/05/01 05:05:52;;;;;;;3.17;1.87;;;;;;;7.64;50.73;101492.38;5021700;27;100406;-79
2023/05/01 05:08:17;;;;;;;1.93;1.83;;;;;;;7.69;50.62;101505.44;5015323;27;97153;-79
2023/05/01 05:10:43;;;;;;;2.60;1.50;;;;;;;7.71;50.67;101478.38;5015492;27;97172;-79
2023/05/01 05:13:08;;;;;;;3.70;1.57;;;;;;;7.81;50.80;101495.59;5013596;27;97651;-79
2023/05/01 05:15:34;;;;;;;2.27;1.80;;;;;;;7.84;50.81;101494.69;5015306;27;97277;-79
2023/05/01 05:17:59;;;;;;;1.90;1.80;;;;;;;7.87;50.64;101488.31;5021810;27;99118;-79
2023/05/01 05:20:25;;;;;;;3.50;2.30;;;;;;;7.95;50.90;101486.81;5020970;27;97522;-79
2023/05/01 05:22:51;;;;;;;1.77;1.67;;;;;;;8.00;50.93;101488.94;5020528;27;97771;-79
2023/05/01 05:25:16;;;;;;;2.83;1.73;;;;;;;8.05;50.84;101491.09;5020355;27;100226;-79
2023/05/01 05:27:42;;;;;;;3.13;1.67;;;;;;;8.13;51.04;101489.56;5019337;27;97055;-79
2023/05/01 05:30:08;;;;;;;2.27;1.83;;;;;;;8.22;50.81;101495.06;5020647;27;97393;-79
2023/05/01 05:32:33;;;;;;;1.93;1.70;;;;;;;8.31;50.77;101484.16;5021618;27;97668;-79
2023/05/01 05:34:59;;;;;;;2.40;2.20;;;;;;;8.42;50.73;101478.22;5016350;27;97349;-79
2023/05/01 05:37:24;;;;;;;1.47;1.37;;;;;;;8.49;50.74;101494.38;5024063;27;100370;-79
2023/05/01 05:39:53;;;;;;;2.93;1.80;;;;;;;8.58;50.83;101475.94;5025246;27;96701;-79
2023/05/01 05:42:18;;;;;;;2.07;1.87;;;;;;;8.69;50.91;101476.22;5025144;27;97078;-79
2023/05/01 05:44:43;;;;;;;3.20;1.63;;;;;;;8.77;50.65;101488.41;5018778;27;97004;-78
2023/05/01 05:47:09;;;;;;;1.60;1.50;;;;;;;8.86;50.76;101495.88;5023232;27;109380;-79
2023/05/01 05:49:34;;;;;;;2.00;1.53;;;;;;;8.93;50.89;101473.59;5017077;27;97178;-79
2023/05/01 05:51:59;;;;;;;2.83;2.00;;;;;;;9.02;50.89;101477.06;5022298;27;98279;-78
2023/05/01 05:54:25;;;;;;;1.67;1.57;;;;;;;9.16;50.77;101464.69;5018083;27;97298;-79
2023/05/01 05:56:50;;;;;;;2.90;1.90;;;;;;;9.25;50.89;101474.88;5025877;27;100762;-80
2023/05/01 05:59:15;;;;;;;3.90;1.80;;;;;;;9.38;50.72;101476.22;5020310;27;97312;-79
2023/05/01 06:01:41;;;;;;;2.20;2.00;;;;;;;9.47;50.85;101473.44;5025153;27;97126;-79
2023/05/01 06:04:07;;;;;;;3.13;1.90;;;;;;;9.59;50.76;101469.69;5019216;27;97358;-79
2023/05/01 06:06:33;;;;;;;2.40;1.63;;;;;;;9.75;50.76;101465.81;5019363;27;97820;-79
2023/05/01 06:08:59;;;;;;;1.57;1.47;;;;;;;9.89;50.50;101462.38;5024658;27;97107;-79
2023/05/01 06:11:24;;;;;;;3.00;1.90;;;;;;;10.03;50.50;101456.16;5021762;27;99315;-79
2023/05/01 06:13:50;;;;;;;4.23;1.47;;;;;;;10.18;50.29;101457.00;5017681;27;97988;-80
2023/05/01 06:16:15;;;;;;;2.17;1.60;;;;;;;10.30;50.17;101458.75;5027076;27;98982;-79
2023/05/01 06:18:41;;;;;;;2.63;1.77;;;;;;;10.45;50.32;101461.53;5023605;27;96720;-80
2023/05/01 06:21:06;;;;;;;6.93;2.20;;;;;;;10.57;50.12;101447.50;5022290;27;97336;-80
2023/05/01 06:23:32;;;;;;;3.77;1.87;;;;;;;10.77;50.08;101468.88;5025542;27;100019;-79
2023/05/01 06:25:58;;;;;;;2.47;1.87;;;;;;;10.91;49.71;101448.09;5025509;27;98808;-79
2023/05/01 06:28:23;;;;;;;2.60;1.80;;;;;;;11.03;49.51;101471.84;5028262;27;97383;-79
2023/05/01 06:30:49;;;;;;;2.33;1.67;;;;;;;11.18;49.36;101453.31;5021898;27;96715;-79
2023/05/01 06:33:14;;;;;;;1.60;1.50;;;;;;;11.38;49.24;101436.81;5018867;27;104156;-80
2023/05/01 06:35:40;;;;;;;2.33;1.70;;;;;;;11.55;49.16;101453.63;5021206;27;97369;-79
2023/05/01 06:38:05;;;;;;;1.70;1.60;;;;;;;11.69;49.01;101453.59;5024198;27;97430;-81
2023/05/01 06:40:33;;;;;;;4.23;2.00;;;;;;;11.83;48.65;101457.56;5021609;27;97718;-79
2023/05/01 06:42:59;;;;;;;2.33;1.90;;;;;;;11.97;48.56;101446.47;5018137;27;99698;-80
2023/05/01 06:45:25;;;;;;;3.13;1.60;;;;;;;12.09;48.48;101427.28;5022037;27;99787;-79
2023/05/01 06:47:50;;;;;;;1.77;1.67;;;;;;;12.25;48.37;101421.22;5020156;27;97357;-79
2023/05/01 06:50:15;;;;;;;3.57;2.00;;;;;;;12.42;48.25;101427.66;5022630;27;97367;-80
2023/05/01 06:52:41;;;;;;;2.93;1.80;;;;;;;12.53;47.96;101444.34;5025217;27;100383;-81
2023/05/01 06:55:07;;;;;;;1.90;1.67;;;;;;;12.67;47.89;101438.72;5020158;27;97391;-79
2023/05/01 06:57:32;;;;;;;3.47;1.67;;;;;;;12.84;47.56;101443.66;5027224;27;96868;-78
2023/05/01 06:59:57;;;;;;;4.03;1.90;;;;;;;12.99;47.33;101436.00;5028352;27;97683;-80
2023/05/01 07:02:23;;;;;;;2.83;1.90;;;;;;;13.11;47.56;101434.84;5019758;27;97550;-80
2023/05/01 07:04:48;;;;;;;1.80;1.70;;;;;;;13.26;46.67;101433.47;5018796;27;100356;-80
2023/05/01 07:07:13;;;;;;;2.57;1.80;;;;;;;13.37;46.99;101433.53;5022612;27;96732;-80
2023/05/01 07:09:40;;;;;;;2.37;1.80;;;;;;;13.49;46.68;101418.56;5021052;27;97041;-80
2023/05/01 07:12:05;;;;;;;2.37;2.17;;;;;;;13.56;46.37;101413.81;5020855;27;98235;-79
2023/05/01 07:14:31;;;;;;;1.93;1.37;;;;;;;13.64;46.35;101406.56;5024854;27;98940;-80
2023/05/01 07:16:56;;;;;;;8.40;1.60;;;;;;;13.78;46.48;101419.47;5020727;27;97291;-80
2023/05/01 07:19:21;;;;;;;3.30;1.50;;;;;;;13.87;46.43;101408.94;5020862;27;97217;-78
2023/05/01 07:21:47;;;;;;;1.70;1.60;;;;;;;13.96;46.33;101405.19;5026004;27;99824;-80
2023/05/01 07:24:12;;;;;;;1.73;1.30;;;;;;;14.05;46.12;101402.19;5018153;27;96993;-80
2023/05/01 07:26:37;;;;;;;3.77;2.00;;;;;;;14.22;46.01;101397.47;5022104;27;97492;-79
2023/05/01 07:29:03;;;;;;;1.97;1.60;;;;;;;14.37;45.99;101391.75;5022122;27;97521;-80
2023/05/01 07:31:29;;;;;;;2.10;1.60;;;;;;;14.57;45.81;101400.59;5027455;27;99269;-80
2023/05/01 07:33:55;;;;;;;2.20;2.10;;;;;;;14.72;45.61;101408.69;5020746;27;99030;-80
2023/05/01 07:36:21;;;;;;;1.87;1.57;;;;;;;14.80;45.35;101404.16;5022232;27;97381;-80
2023/05/01 07:38:47;;;;;;;1.40;1.30;;;;;;;14.85;45.39;101384.75;5022251;27;97331;-80
2023/05/01 07:41:12;;;;;;;2.23;1.40;;;;;;;14.93;45.31;101399.63;5020976;27;97125;-80
2023/05/01 07:43:38;;;;;;;1.93;1.57;;;;;;;15.00;45.08;101404.63;5014890;27;98854;-80
2023/05/01 07:46:04;;;;;;;3.00;1.43;;;;;;;15.11;45.11;101389.28;5020332;27;96717;-80
2023/05/01 07:48:30;;;;;;;1.40;1.13;;;;;;;15.21;45.02;101390.50;5021441;27;97332;-80
2023/05/01 07:50:56;;;;;;;4.70;1.67;;;;;;;15.27;44.99;101396.78;5018753;27;100266;-81
2023/05/01 07:53:22;;;;;;;3.03;1.80;;;;;;;15.35;44.80;101381.19;5018334;27;97147;-81
2023/05/01 07:55:48;;;;;;;2.10;1.50;;;;;;;15.49;44.66;101377.38;5018725;27;97221;-80
2023/05/01 07:58:13;;;;;;;2.80;1.60;;;;;;;15.64;44.54;101380.59;5022142;27;97233;-80
2023/05/01 08:00:39;;;;;;;2.20;1.40;;;;;;;15.81;44.38;101378.53;5019640;27;97887;-80
2023/05/01 08:03:04;;;;;;;1.50;1.40;;;;;;;15.91;44.19;101382.53;5012996;27;100429;-80
2023/05/01 08:05:33;;;;;;;1.77;1.50;;;;;;;16.00;44.04;101384.25;5020290;27;96819;-81
2023/05/01 08:07:58;;;;;;;1.57;1.40;;;;;;;16.07;43.88;101375.38;5021965;27;97015;-80
2023/05/01 08:10:23;;;;;;;2.70;1.60;;;;;;;16.17;43.76;101382.91;5020707;27;98139;-80
2023/05/01 08:12:49;;;;;;;2.83;1.53;;;;;;;16.31;43.80;101390.13;5018750;27;97710;-80
2023/05/01 08:15:14;;;;;;;2.03;1.53;;;;;;;16.42;43.73;101376.16;5018733;27;97592;-80
2023/05/01 08:17:39;;;;;;;2.00;1.53;;;;;;;16.53;43.24;101396.84;5027324;27;97089;-80
2023/05/01 08:20:06;;;;;;;1.20;1.10;;;;;;;16.61;43.04;101372.78;5025351;27;99367;-80
2023/05/01 08:22:31;;;;;;;1.93;1.83;;;;;;;16.70;43.04;101372.47;5019271;27;96959;-80
2023/05/01 08:24:57;;;;;;;2.37;1.80;;;;;;;16.82;42.80;101357.22;5023911;27;96908;-82
2023/05/01 08:27:22;;;;;;;2.77;2.07;;;;;;;16.94;42.54;101372.50;5020698;27;97800;-80
2023/05/01 08:29:48;;;;;;;1.43;1.33;;;;;;;17.12;42.69;101357.94;5026293;27;99560;-81
2023/05/01 08:32:14;;;;;;;1.80;1.37;;;;;;;17.31;42.33;101352.44;5030087;27;98229;-82
2023/05/01 08:34:40;;;;;;;2.63;1.50;;;;;;;17.41;42.24;101351.56;5021322;27;97700;-80
2023/05/01 08:37:05;;;;;;;2.30;1.43;;;;;;;17.57;42.08;101364.56;5030044;27;96634;-80
2023/05/01 08:39:31;;;;;;;1.63;1.43;;;;;;;17.57;41.57;101353.44;5028705;27;99526;-80
2023/05/01 08:41:57;;;;;;;1.67;1.57;;;;;;;17.73;41.73;101346.91;5023927;27;99383;-80
2023/05/01 08:44:24;;;;;;;1.70;1.60;;;;;;;17.76;41.46;101348.63;5025378;27;96949;-80
2023/05/01 08:47:06;;;;;;;2.90;1.53;;;;;;;17.90;39.87;101341.13;5020918;27;96689;-80
2023/05/01 08:49:33;;;;;;;1.80;1.50;;;;;;;18.04;41.39;101350.31;5019562;27;99265;-80
2023/05/01 08:52:01;;;;;;;3.97;1.77;;;;;;;18.17;40.94;101358.72;5025938;27;97718;-81
2023/05/01 08:54:30;;;;;;;2.63;1.90;;;;;;;18.29;40.80;101349.69;5028781;27;96944;-80
2023/05/01 08:57:02;;;;;;;4.20;1.70;;;;;;;18.41;39.84;101339.84;5029488;27;97143;-81
2023/05/01 08:59:30;;;;;;;1.40;1.30;;;;;;;18.48;40.47;101327.38;5025466;27;97437;-80
2023/05/01 09:01:55;;;;;;;2.70;1.70;;;;;;;18.58;40.59;101334.81;5023618;27;100160;-81
2023/05/01 09:04:21;;;;;;;1.73;1.17;;;;;;;18.78;40.43;101330.69;5019624;27;99124;-80
2023/05/01 09:06:47;;;;;;;1.87;1.40;;;;;;;19.01;39.98;101333.81;5026215;27;97289;-81
2023/05/01 09:09:12;;;;;;;2.23;1.80;;;;;;;19.13;39.63;101327.50;5022024;27;97468;-80
2023/05/01 09:11:38;;;;;;;1.87;1.67;;;;;;;19.31;39.76;101329.44;5020055;27;97385;-81
2023/05/01 09:14:04;;;;;;;2.70;1.40;;;;;;;19.48;39.44;101333.97;5019636;27;97309;-80
2023/05/01 09:16:30;;;;;;;4.90;1.93;;;;;;;19.60;39.17;101326.88;5020633;27;97213;-80
2023/05/01 09:18:58;;;;;;;3.10;1.70;;;;;;;19.66;39.02;101325.44;5023838;27;100338;-80
2023/05/01 09:21:24;;;;;;;7.83;1.80;;;;;;;19.65;39.08;101314.84;5017537;27;97448;-80
2023/05/01 09:23:50;;;;;;;1.90;1.43;;;;;;;19.76;38.86;101317.38;5015132;27;96886;-80
2023/05/01 09:26:15;;;;;;;4.30;1.37;;;;;;;19.87;38.67;101312.31;5016035;27;97181;-80
2023/05/01 09:28:43;;;;;;;4.37;2.10;;;;;;;19.92;38.70;101303.06;5021569;27;99251;-79
2023/05/01 09:31:31;;;;;;;5.00;1.43;;;;;;;19.98;35.64;101305.72;5024398;27;100089;-80
2023/05/01 09:33:59;;;;;;;2.80;1.63;;;;;;;20.05;37.82;101305.06;5016008;27;96779;-80
2023/05/01 09:36:27;;;;;;;2.00;1.57;;;;;;;20.11;38.52;101308.47;5021870;27;97561;-80
2023/05/01 09:38:53;;;;;;;1.67;1.40;;;;;;;20.30;38.13;101308.31;5013596;27;99864;-79
2023/05/01 09:41:19;;;;;;;2.53;1.90;;;;;;;20.36;38.25;101306.88;5019090;27;99601;-80
2023/05/01 09:43:53;;;;;;;3.20;1.70;;;;;;;20.53;36.57;101301.63;5015372;27;96980;-80
2023/05/01 09:46:19;;;;;;;5.50;1.80;;;;;;;20.64;37.69;101304.16;5017793;27;97099;-80
2023/05/01 09:48:55;;;;;;;4.13;2.07;;;;;;;20.53;36.52;101300.91;5024025;27;100993;-79
2023/05/01 09:51:25;;;;;;;2.50;1.60;;;;;;;20.35;37.69;101308.19;5018890;27;97559;-80
2023/05/01 09:53:52;;;;;;;1.53;1.40;;;;;;;20.42;37.92;101304.69;5023340;27;97326;-80
2023/05/01 09:56:18;;;;;;;1.70;1.60;;;;;;;20.60;37.98;101306.53;5018770;27;97207;-80
2023/05/01 09:58:43;;;;;;;5.17;1.90;;;;;;;20.73;37.87;101291.72;5018168;27;100041;-80
2023/05/01 10:01:09;;;;;;;3.20;2.20;;;;;;;20.84;37.57;101283.78;5020105;27;100603;-81
2023/05/01 10:03:34;;;;;;;3.20;1.50;;;;;;;20.98;37.33;101294.88;5020458;27;96697;-79
2023/05/01 10:06:01;;;;;;;4.80;2.00;;;;;;;21.13;37.36;101283.81;5033505;27;97550;-80
2023/05/01 10:08:44;;;;;;;2.20;2.00;;;;;;;21.27;35.78;101282.41;5016215;27;99592;-79
2023/05/01 10:11:09;;;;;;;3.40;1.30;;;;;;;21.39;37.01;101275.19;5020358;27;100086;-81
2023/05/01 10:13:34;;;;;;;2.37;1.90;;;;;;;21.44;36.91;101285.47;5011795;27;96840;-80
2023/05/01 10:16:02;;;;;;;2.30;1.73;;;;;;;21.46;36.85;101274.47;5017317;27;97217;-80
2023/05/01 10:18:29;;;;;;;3.87;2.30;;;;;;;21.45;36.96;101275.75;5020400;27;100934;-80
2023/05/01 10:20:55;;;;;;;2.40;1.93;;;;;;;21.48;36.47;101272.63;5017504;27;97473;-80
2023/05/01 10:23:21;;;;;;;3.00;2.10;;;;;;;21.43;36.54;101275.56;5023559;27;97255;-81
2023/05/01 10:25:48;;;;;;;2.50;1.60;;;;;;;21.45;36.55;101270.16;5023339;27;97538;-80
2023/05/01 10:28:14;;;;;;;1.73;1.43;;;;;;;21.47;36.58;101295.59;5016658;27;97879;-80
2023/05/01 10:30:40;;;;;;;2.90;1.63;;;;;;;21.67;36.56;101272.31;5017811;27;99352;-80
2023/05/01 10:33:05;;;;;;;2.57;2.10;;;;;;;21.83;36.31;101250.72;5017929;27;97303;-80
2023/05/01 10:35:37;;;;;;;1.53;1.43;;;;;;;22.01;36.02;101241.22;5015913;27;97579;-80
2023/05/01 10:38:05;;;;;;;2.10;1.50;;;;;;;22.13;36.00;101259.94;5014797;27;99356;-79
2023/05/01 10:40:43;;;;;;;1.40;1.07;;;;;;;22.15;34.40;101248.16;5018345;27;98744;-80
2023/05/01 10:43:27;;;;;;;2.40;1.73;;;;;;;22.23;34.04;101243.31;5012629;27;97270;-81
2023/05/01 10:46:17;;;;;;;2.10;1.40;;;;;;;22.17;35.28;101242.75;5015348;27;97421;-80
2023/05/01 10:48:43;;;;;;;1.80;1.30;;;;;;;22.23;35.61;101235.66;5013812;27;97965;-80
2023/05/01 10:51:09;;;;;;;2.03;1.40;;;;;;;22.48;35.40;101229.47;5012023;27;99012;-80
2023/05/01 10:53:35;;;;;;;4.77;1.57;;;;;;;22.68;34.95;101231.34;5014870;27;97098;-81
2023/05/01 10:56:01;;;;;;;2.70;1.60;;;;;;;22.83;34.78;101228.50;5018758;27;97030;-80
2023/05/01 10:58:38;;;;;;;2.40;1.43;;;;;;;22.95;32.89;101218.38;5019310;27;97229;-80
2023/05/01 11:01:35;;;;;;;1.63;1.50;;;;;;;23.11;33.34;101208.59;5016414;27;97275;-80
2023/05/01 11:04:03;;;;;;;3.50;1.60;;;;;;;23.31;34.14;101213.19;5023221;27;96874;-80
2023/05/01 11:06:28;;;;;;;2.07;1.50;;;;;;;23.41;33.93;101238.66;5015548;27;97568;-81
2023/05/01 11:08:54;;;;;;;1.60;1.33;;;;;;;23.53;33.86;101212.38;5018067;27;97623;-81
2023/05/01 11:11:22;;;;;;;1.70;1.13;;;;;;;23.61;33.82;101195.47;5013952;27;97292;-81
2023/05/01 11:14:01;;;;;;;3.30;1.70;;;;;;;23.66;32.25;101208.53;5021445;27;96752;-81
2023/05/01 11:16:40;;;;;;;1.93;1.30;;;;;;;23.73;32.44;101196.53;5017088;28;97275;-81
2023/05/01 11:19:10;;;;;;;1.50;1.40;;;;;;;23.58;33.29;101197.38;5018304;27;97536;-81
2023/05/01 11:21:37;;;;;;;2.77;1.17;;;;;;;23.53;33.49;101194.75;5015955;27;98361;-81
2023/05/01 11:24:04;;;;;;;1.30;1.20;;;;;;;23.65;33.43;101193.78;5020238;27;96841;-83
2023/05/01 11:26:30;;;;;;;1.63;1.20;;;;;;;23.88;33.01;101195.66;5013495;27;99001;-81
2023/05/01 11:29:00;;;;;;;1.70;1.23;;;;;;;24.01;32.13;101190.50;5019961;27;97475;-81
2023/05/01 11:31:26;;;;;;;1.20;1.10;;;;;;;24.08;32.81;101191.81;5016703;27;97075;-81